Links to the
Yachts


Sailing Associations
BCYA - Baltimore City Yacht Association

NPSA - North Point Sailing Association

CBYRA-Chesapeake Bay Yacht Racing Association

PHRF of the Chesapeake

US Sailing
Yacht Services & Equipment
Tidewater Yacht Service Center

Defender Marine Supply

APS

Jamestown Distributors

LayLine.Com

West Marine

Performance Yacht Systems

North Sails 3DL600
Weather
Dr. Bob's Weather Sources
Miscellaneous
US Coast Guard

USCG Notices to Mariners

USCG Atlantic Coast Light List
(Vol 2)


Ocean Navigator


Latitude: 39° 16' 09"N Longitude: 76° 44' 24"W

Current Weather at the Yacht Club
Date:April 28, 2017 Time: 7:00pm
Temp:83 °F
Winds: SSW 0.0 to 6.1 knots
Sweat Index:84 °F
Humidity:45 %Dew Pt:60 °F
Barometer: 1006.7 mbRain: 0.00 "
(last half hour)
Total Rainfall in last 45 hours:0.02"
(Rain guage NOT heated. Snow hard to detect. But when it melts, it may show!) 
PLEASE NOTE: Sometimes the time scale in the graph is not up-to-date. There's some quirk in the new server where this site now resides. Eventually it will right itself.



"A club so exclusive even the members don't know who they are!", 1996, Bruce Regan, MD, CYC Staff Psychiatrist
"None in this yacht club suffer from insanity, they ALL seem to enjoy it!!", Dr. Regan at the 1997 regatta
"Now that I've assessed those members with MPD, the guest list for this year's regatta has been dramatically increased!", Dr. Regan, 1998
"Si hoc legere Scis nimium Eruditionis habes", Dr. Regan at the 1999 regatta
"I can't be responsible for this much irresponsible behavior!", Dr. Regan at the 2000 regatta
"These ethanol therapy sessions are quite effective!", Dr. Regan at the 2001 regatta
"The addition to the club house looks great! Standby for the dues assessment.", Dr. Regan at the 2005 regatta
"When global warming takes hold, we can move the wharf to Spring Grove which will be convenient for so many of our members!", Dr. Regan at the 2008 regatta
"We've always had clowns, but now we have Flying Clowns in the club? More coulrophobia than I can handle!", Dr. Regan at the 2009 regatta
"The rumors that Henry Kissinger is the new Rear Commodore are unfounded!", Dr. Regan at the 2011 regatta
"I hate to advocate alcohol, frivolity, or insanity to anyone, but they’ve always seemed to work for our members.", Dr. Regan (in absentia) at the 2014 regatta

Previous CYC Weather Observations
Time Air Temp (F) Dew Point (F) Humidity Wind (knots) Barometer (mb) Rainfall (in)
4/28/17 6:30pm856044% SW at 0.0 to 7.0 1006.8 0.00
4/28/17 6:00pm866143% SSW at 0.0 to 5.2 1006.7 0.00
4/28/17 5:30pm886039% SW at 0.0 to 4.3 1006.6 0.00
4/28/17 5:00pm896039% SSE at 0.0 to 5.2 1006.6 0.00
4/28/17 4:30pm895532% WNW at 0.0 to 3.5 1006.5 0.00
4/28/17 4:00pm875533% NNW at 0.0 to 3.5 1006.4 0.00
4/28/17 3:30pm865433% NNW at 0.0 to 5.2 1007.1 0.00
4/28/17 3:00pm845536% NW at 0.0 to 7.0 1007.0 0.00
4/28/17 2:30pm825640% N at 0.9 to 6.1 1007.4 0.00
4/28/17 2:00pm815540% N at 0.9 to 7.8 1007.5 0.00
4/28/17 1:30pm805440% N at 0.0 to 4.3 1007.6 0.00
4/28/17 1:00pm795340% N at 0.0 to 4.3 1007.5 0.00
4/28/17 12:30pm775342% N at 0.0 to 3.5 1007.5 0.00
4/28/17 12:00pm765446% NNW at 0.0 to 3.5 1007.7 0.00
4/28/17 11:30am755347% N at 0.0 to 2.6 1007.9 0.00
4/28/17 11:00am735451% N at 0.0 to 1.7 1007.5 0.00
4/28/17 10:30am725454% N at 0.0 to 2.6 1007.3 0.00
4/28/17 10:00am715455% N at 0.0 to 1.7 1007.0 0.00
4/28/17 9:30am695560% N at 0.0 to 0.9 1007.0 0.00
4/28/17 9:00am675565% Calm 1006.7 0.00
4/28/17 8:30am665774% Calm 1006.5 0.00
4/28/17 8:00am655777% Calm 1005.9 0.00
4/28/17 7:30am645778% Calm 1005.3 0.00
4/28/17 7:00am645778% Calm 1004.9 0.00
4/28/17 6:30am645778% Calm 1004.7 0.00
4/28/17 6:00am655777% Calm 1004.0 0.00
4/28/17 5:30am665775% Calm 1003.2 0.00
4/28/17 5:00am665874% Calm 1002.7 0.00
4/28/17 4:30am675873% Calm 1002.3 0.00
4/28/17 4:00am675872% Calm 1002.0 0.00
4/28/17 3:30am675872% Calm 1001.9 0.00
4/28/17 3:00am685871% Calm 1001.6 0.00
4/28/17 2:30am685871% Calm 1001.2 0.00
4/28/17 2:00am695971% Calm 1001.0 0.00
4/28/17 1:30am695969% Calm 1001.0 0.00
4/28/17 1:00am705969% Calm 1000.7 0.00
4/28/17 12:30am705969% Calm 1000.9 0.00
4/28/17 12:00am706070% Calm 1000.3 0.00
4/27/17 12:00pm706070% Calm 1000.3 0.00
4/27/17 11:30pm705968% Calm 1000.1 0.01
4/27/17 11:00pm715965% Calm 1000.1 0.00
4/27/17 10:30pm715862% Calm 1000.0 0.00
4/27/17 10:00pm725862% Calm 1000.1 0.00
4/27/17 9:30pm735860% Calm 999.7 0.00
4/27/17 9:00pm745757% Calm 999.5 0.00
4/27/17 8:30pm755857% Calm 999.0 0.00
4/27/17 8:00pm765956% Calm 998.8 0.00
4/27/17 7:30pm776055% Calm 998.6 0.00
4/27/17 7:00pm786054% Calm 998.8 0.00
4/27/17 6:30pm806254% SSW at 0.0 to 8.7 998.7 0.00
4/27/17 6:00pm816355% WSW at 0.0 to 10.4 998.6 0.00
4/27/17 5:30pm826455% WSW at 0.0 to 8.7 998.6 0.00
4/27/17 5:00pm826454% SW at 0.0 to 9.6 998.6 0.00
4/27/17 4:30pm806356% SW at 0.0 to 6.1 998.3 0.00
4/27/17 4:00pm786360% SSW at 0.0 to 3.5 998.8 0.00
4/27/17 3:30pm776464% SSW at 0.0 to 0.9 999.3 0.00
4/27/17 3:00pm776463% SSW at 0.0 to 1.7 999.5 0.00
4/27/17 2:30pm776464% SW at 0.0 to 1.7 999.4 0.00
4/27/17 2:00pm766365% SSE at 0.0 to 2.6 999.9 0.00
4/27/17 1:30pm746267% SSE at 0.0 to 1.7 1000.3 0.00
4/27/17 1:00pm726270% S at 0.0 to 0.9 1000.6 0.00
4/27/17 12:30pm716171% Calm 1001.3 0.00
4/27/17 12:00pm685973% Calm 1001.6 0.00
4/27/17 11:30am665977% Calm 1001.8 0.00
4/27/17 11:00am645778% Calm 1002.1 0.00
4/27/17 10:30am635680% Calm 1001.9 0.00
4/27/17 10:00am615683% Calm 1001.5 0.00
4/27/17 9:30am605585% Calm 1001.8 0.00
4/27/17 9:00am595585% Calm 1001.6 0.00
4/27/17 8:30am595485% S at 0.0 to 6.1 1001.2 0.00
4/27/17 8:00am585485% Calm 1001.4 0.00
4/27/17 7:30am585385% Calm 1001.3 0.00
4/27/17 7:00am585385% Calm 1001.0 0.00
4/27/17 6:30am585384% Calm 1001.1 0.00
4/27/17 6:00am585384% Calm 1000.9 0.00
4/27/17 5:30am585384% Calm 1000.7 0.00
4/27/17 5:00am575384% Calm 1000.3 0.00
4/27/17 4:30am575283% Calm 1000.3 0.01
4/27/17 4:00am585282% Calm 1000.3 0.00
4/27/17 3:30am585282% Calm 1000.5 0.00
4/27/17 3:00am585282% Calm 1000.6 0.00
4/27/17 2:30am585281% Calm 1000.6 0.00
4/27/17 2:00am585280% Calm 1000.8 0.00
4/27/17 1:30am595380% Calm 1001.1 0.00
4/27/17 1:00am595379% Calm 1001.1 0.00
4/27/17 12:30am595378% Calm 1001.2 0.00
4/27/17 12:00am605378% Calm 1001.1 0.00



The first of Infrared's Canada trips: NEWFOUNDLAND 2002 TRIP LOG.
Infrared's second Canada trip: PEI 2004 TRIP LOG.
Infrared in the 2007 ANNAPOLIS TO NEWPORT RACE.
Infrared's 2011 NEWPORT/MARTHAS VINEYARD TRIP LOG.